createdAt,value
2018-12-03T00:00:59.843Z,960.2
2018-12-03T00:02:10.070Z,960.2
2018-12-03T00:03:20.253Z,960.14
2018-12-03T00:04:30.451Z,960.11
2018-12-03T00:05:40.822Z,960.16
2018-12-03T00:06:51.003Z,960.12
2018-12-03T00:08:00.930Z,960.08
2018-12-03T00:09:11.122Z,960.09
2018-12-03T00:10:21.306Z,960.1
2018-12-03T00:11:31.544Z,960.08
2018-12-03T00:12:41.730Z,960.1
2018-12-03T00:13:51.918Z,960.05
2018-12-03T00:15:02.105Z,960.05
2018-12-03T00:16:12.288Z,960.02
2018-12-03T00:17:22.624Z,960.03
2018-12-03T00:18:32.802Z,959.99
2018-12-03T00:19:42.989Z,959.98
2018-12-03T00:20:53.172Z,960.02
2018-12-03T00:22:03.354Z,959.99
2018-12-03T00:23:13.633Z,959.96
2018-12-03T00:24:23.872Z,960.03
2018-12-03T00:25:34.050Z,959.96
2018-12-03T00:26:44.231Z,959.98
2018-12-03T00:27:54.414Z,959.97
2018-12-03T00:29:04.643Z,959.99
2018-12-03T00:30:14.826Z,959.97
2018-12-03T00:31:25.016Z,959.96
2018-12-03T00:32:35.201Z,959.98
2018-12-03T00:33:45.395Z,959.94
2018-12-03T00:34:55.674Z,959.92
2018-12-03T00:36:05.854Z,959.89
2018-12-03T00:37:16.072Z,959.93
2018-12-03T00:38:26.251Z,959.93
2018-12-03T00:39:36.432Z,959.9
2018-12-03T00:40:46.714Z,959.88
2018-12-03T00:41:56.952Z,959.85
2018-12-03T00:43:07.141Z,959.88
2018-12-03T00:44:17.333Z,959.88
2018-12-03T00:45:27.519Z,959.85
2018-12-03T00:46:37.863Z,959.85
2018-12-03T00:47:48.062Z,959.86
2018-12-03T00:48:58.247Z,959.85
2018-12-03T00:50:08.430Z,959.83
2018-12-03T00:51:18.612Z,959.86
2018-12-03T00:52:28.580Z,959.81
2018-12-03T00:53:38.765Z,959.79
2018-12-03T00:54:48.949Z,959.79
2018-12-03T00:55:59.129Z,959.81
2018-12-03T00:57:09.323Z,959.78
2018-12-03T00:58:19.550Z,959.77
2018-12-03T00:59:29.735Z,959.76
2018-12-03T01:00:39.916Z,959.75
2018-12-03T01:01:50.095Z,959.75
2018-12-03T01:03:00.273Z,959.66
2018-12-03T01:04:10.507Z,959.67
2018-12-03T01:05:20.698Z,959.68
2018-12-03T01:06:30.880Z,959.66
2018-12-03T01:07:41.066Z,959.64
2018-12-03T01:08:51.248Z,959.68
2018-12-03T01:10:01.480Z,959.63
2018-12-03T01:11:11.664Z,959.63
2018-12-03T01:12:21.896Z,959.64
2018-12-03T01:13:32.084Z,959.6
2018-12-03T01:14:42.276Z,959.63
2018-12-03T01:15:52.529Z,959.55
2018-12-03T01:17:02.712Z,959.61
2018-12-03T01:18:12.896Z,959.57
2018-12-03T01:19:23.081Z,959.56
2018-12-03T01:20:33.261Z,959.57
2018-12-03T01:21:43.545Z,959.57
2018-12-03T01:22:53.724Z,959.57
2018-12-03T01:24:03.905Z,959.57
2018-12-03T01:25:14.085Z,959.54
2018-12-03T01:26:24.269Z,959.58
2018-12-03T01:27:34.600Z,959.52
2018-12-03T01:28:44.783Z,959.53
2018-12-03T01:29:54.968Z,959.51
2018-12-03T01:31:05.148Z,959.48
2018-12-03T01:32:15.328Z,959.51
2018-12-03T01:33:25.664Z,959.5
2018-12-03T01:34:35.861Z,959.49
2018-12-03T01:35:46.045Z,959.51
2018-12-03T01:36:56.227Z,959.46
2018-12-03T01:38:06.416Z,959.5
2018-12-03T01:39:16.757Z,959.45
2018-12-03T01:40:26.936Z,959.5
2018-12-03T01:41:37.121Z,959.49
2018-12-03T01:42:47.356Z,959.49
2018-12-03T01:43:57.538Z,959.46
2018-12-03T01:45:07.772Z,959.48
2018-12-03T01:46:17.956Z,959.44
2018-12-03T01:47:28.137Z,959.46
2018-12-03T01:48:38.320Z,959.45
2018-12-03T01:49:48.512Z,959.46
2018-12-03T01:50:58.797Z,959.43
2018-12-03T01:52:08.990Z,959.41
2018-12-03T01:53:19.181Z,959.42
2018-12-03T01:54:29.371Z,959.41
2018-12-03T01:55:39.558Z,959.39
2018-12-03T01:56:49.891Z,959.35
2018-12-03T01:58:00.072Z,959.35
2018-12-03T01:59:10.257Z,959.37
2018-12-03T02:00:20.436Z,959.34
2018-12-03T02:01:30.630Z,959.3
2018-12-03T02:02:40.867Z,959.31
2018-12-03T02:03:51.046Z,959.25
2018-12-03T02:05:01.227Z,959.32
2018-12-03T02:06:11.409Z,959.26
2018-12-03T02:07:21.592Z,959.26
2018-12-03T02:08:31.875Z,959.29
2018-12-03T02:09:42.068Z,959.31
2018-12-03T02:10:52.251Z,959.29
2018-12-03T02:12:02.429Z,959.24
2018-12-03T02:13:12.658Z,959.27
2018-12-03T02:14:22.938Z,959.31
2018-12-03T02:15:33.118Z,959.27
2018-12-03T02:16:43.297Z,959.26
2018-12-03T02:17:53.487Z,959.23
2018-12-03T02:19:03.667Z,959.26
2018-12-03T02:20:13.846Z,959.22
2018-12-03T02:21:24.029Z,959.2
2018-12-03T02:22:34.213Z,959.22
2018-12-03T02:23:44.395Z,959.21
2018-12-03T02:24:54.577Z,959.2
2018-12-03T02:26:04.910Z,959.19
2018-12-03T02:27:15.110Z,959.2
2018-12-03T02:28:25.298Z,959.19
2018-12-03T02:29:35.479Z,959.18
2018-12-03T02:30:45.660Z,959.22
2018-12-03T02:31:55.961Z,959.2
2018-12-03T02:33:06.154Z,959.22
2018-12-03T02:34:16.348Z,959.2
2018-12-03T02:35:26.539Z,959.24
2018-12-03T02:36:36.721Z,959.22
2018-12-03T02:37:46.960Z,959.17
2018-12-03T02:38:57.139Z,959.17
2018-12-03T02:40:07.361Z,959.16
2018-12-03T02:41:17.563Z,959.15
2018-12-03T02:42:27.756Z,959.13
2018-12-03T02:43:38.107Z,959.15
2018-12-03T02:44:48.292Z,959.12
2018-12-03T02:45:58.514Z,959.13
2018-12-03T02:47:08.705Z,959.11
2018-12-03T02:48:18.898Z,959.1
2018-12-03T02:49:29.145Z,959.11
2018-12-03T02:50:39.321Z,959.09
2018-12-03T02:51:49.511Z,959.13
2018-12-03T02:52:59.702Z,959.08
2018-12-03T02:54:09.885Z,959.08
2018-12-03T02:55:20.145Z,959.05
2018-12-03T02:56:30.326Z,959.03
2018-12-03T02:57:40.514Z,959.06
2018-12-03T02:58:50.700Z,959.07
2018-12-03T03:00:00.885Z,959.02
2018-12-03T03:01:11.244Z,959.01
2018-12-03T03:02:21.431Z,959.03
2018-12-03T03:03:31.616Z,959.04
2018-12-03T03:04:41.811Z,959.01
2018-12-03T03:05:51.994Z,959.03
2018-12-03T03:07:02.233Z,959.01
2018-12-03T03:08:12.431Z,958.97
2018-12-03T03:09:22.633Z,958.97
2018-12-03T03:10:32.822Z,958.94
2018-12-03T03:11:43.004Z,958.89
2018-12-03T03:12:53.248Z,958.94
2018-12-03T03:14:03.431Z,958.9
2018-12-03T03:15:13.615Z,958.89
2018-12-03T03:16:23.804Z,958.91
2018-12-03T03:17:34.038Z,958.88
2018-12-03T03:18:44.349Z,958.89
2018-12-03T03:19:54.540Z,958.9
2018-12-03T03:21:04.729Z,958.94
2018-12-03T03:22:14.912Z,958.94
2018-12-03T03:23:25.096Z,958.94
2018-12-03T03:24:35.467Z,958.92
2018-12-03T03:25:45.714Z,958.95
2018-12-03T03:26:55.899Z,958.91
2018-12-03T03:28:06.086Z,958.91
2018-12-03T03:29:16.279Z,958.95
2018-12-03T03:30:26.530Z,958.93
2018-12-03T03:31:36.759Z,958.91
2018-12-03T03:32:47.009Z,958.91
2018-12-03T03:33:57.252Z,958.91
2018-12-03T03:35:07.439Z,958.91
2018-12-03T03:36:17.713Z,958.89
2018-12-03T03:37:27.892Z,958.89
2018-12-03T03:38:37.813Z,958.85
2018-12-03T03:39:48.002Z,958.86
2018-12-03T03:40:57.916Z,958.84
2018-12-03T03:42:08.195Z,958.86
2018-12-03T03:43:18.377Z,958.82
2018-12-03T03:44:28.570Z,958.82
2018-12-03T03:45:38.757Z,958.83
2018-12-03T03:46:48.946Z,958.81
2018-12-03T03:47:59.253Z,958.75
2018-12-03T03:49:09.179Z,958.76
2018-12-03T03:50:19.366Z,958.74
2018-12-03T03:51:29.554Z,958.74
2018-12-03T03:52:39.746Z,958.72
2018-12-03T03:53:49.990Z,958.73
2018-12-03T03:55:00.179Z,958.71
2018-12-03T03:56:10.374Z,958.72
2018-12-03T03:57:20.560Z,958.69
2018-12-03T03:58:30.751Z,958.69
2018-12-03T03:59:41.085Z,958.7
2018-12-03T04:00:51.285Z,958.64
2018-12-03T04:02:01.483Z,958.67
2018-12-03T04:03:11.409Z,958.67
2018-12-03T04:04:21.604Z,958.64
2018-12-03T04:05:31.922Z,958.65
2018-12-03T04:06:42.105Z,958.65
2018-12-03T04:07:52.301Z,958.67
2018-12-03T04:09:02.491Z,958.64
2018-12-03T04:10:12.730Z,958.64
2018-12-03T04:11:23.018Z,958.61
2018-12-03T04:12:33.207Z,958.62
2018-12-03T04:13:43.443Z,958.61
2018-12-03T04:14:53.647Z,958.61
2018-12-03T04:16:03.839Z,958.6
2018-12-03T04:17:14.182Z,958.61
2018-12-03T04:18:24.376Z,958.56
2018-12-03T04:19:34.560Z,958.55
2018-12-03T04:20:44.747Z,958.51
2018-12-03T04:21:54.940Z,958.51
2018-12-03T04:23:05.323Z,958.49
2018-12-03T04:24:15.510Z,958.51
2018-12-03T04:25:25.699Z,958.49
2018-12-03T04:26:35.886Z,958.46
2018-12-03T04:27:46.070Z,958.45
2018-12-03T04:28:56.314Z,958.44
2018-12-03T04:30:06.492Z,958.42
2018-12-03T04:31:16.697Z,958.44
2018-12-03T04:32:26.880Z,958.45
2018-12-03T04:33:37.080Z,958.44
2018-12-03T04:34:47.367Z,958.45
2018-12-03T04:35:57.553Z,958.44
2018-12-03T04:37:07.745Z,958.44
2018-12-03T04:38:17.959Z,958.41
2018-12-03T04:39:28.161Z,958.38
2018-12-03T04:40:38.403Z,958.37
2018-12-03T04:41:48.588Z,958.36
2018-12-03T04:42:58.781Z,958.34
2018-12-03T04:44:08.965Z,958.35
2018-12-03T04:45:19.153Z,958.35
2018-12-03T04:46:29.439Z,958.34
2018-12-03T04:47:39.625Z,958.35
2018-12-03T04:48:49.839Z,958.34
2018-12-03T04:50:01.069Z,958.29
2018-12-03T04:51:11.270Z,958.31
2018-12-03T04:52:21.572Z,958.27
2018-12-03T04:53:31.763Z,958.25
2018-12-03T04:54:41.955Z,958.27
2018-12-03T04:55:52.153Z,958.21
2018-12-03T04:57:02.341Z,958.21
2018-12-03T04:58:12.675Z,958.16
2018-12-03T04:59:22.858Z,958.22
2018-12-03T05:00:33.043Z,958.16
2018-12-03T05:01:43.248Z,958.17
2018-12-03T05:02:53.440Z,958.2
2018-12-03T05:04:03.797Z,958.18
2018-12-03T05:05:13.978Z,958.17
2018-12-03T05:06:24.163Z,958.15
2018-12-03T05:07:34.400Z,958.18
2018-12-03T05:08:44.602Z,958.13
2018-12-03T05:09:54.936Z,958.12
2018-12-03T05:11:05.116Z,958.13
2018-12-03T05:12:15.299Z,958.11
2018-12-03T05:13:25.482Z,958.14
2018-12-03T05:14:35.667Z,958.12
2018-12-03T05:15:45.958Z,958.11
2018-12-03T05:16:56.201Z,958.12
2018-12-03T05:18:06.391Z,958.12
2018-12-03T05:19:16.636Z,958.1
2018-12-03T05:20:26.830Z,958.05
2018-12-03T05:21:37.167Z,958.03
2018-12-03T05:22:47.086Z,958.03
2018-12-03T05:23:57.280Z,958.08
2018-12-03T05:25:12.180Z,958.07
2018-12-03T05:26:27.248Z,958.02
2018-12-03T05:27:37.587Z,958.05
2018-12-03T05:28:47.814Z,958.05
2018-12-03T05:29:57.995Z,957.99
2018-12-03T05:31:08.175Z,958.03
2018-12-03T05:32:18.361Z,958
2018-12-03T05:33:28.605Z,957.95
2018-12-03T05:34:38.790Z,957.96
2018-12-03T05:35:48.990Z,957.95
2018-12-03T05:36:59.182Z,957.93
2018-12-03T05:38:09.099Z,957.98
2018-12-03T05:39:19.366Z,957.94
2018-12-03T05:40:29.545Z,957.95
2018-12-03T05:41:39.730Z,957.9
2018-12-03T05:42:49.908Z,957.93
2018-12-03T05:44:00.088Z,957.96
2018-12-03T05:45:10.326Z,957.92
2018-12-03T05:46:20.510Z,957.91
2018-12-03T05:47:30.692Z,957.91
2018-12-03T05:48:40.926Z,957.91
2018-12-03T05:49:51.114Z,957.92
2018-12-03T05:51:01.353Z,957.92
2018-12-03T05:52:11.535Z,957.92
2018-12-03T05:53:21.715Z,957.92
2018-12-03T05:54:31.908Z,957.9
2018-12-03T05:55:42.096Z,957.88
2018-12-03T05:56:52.388Z,957.84
2018-12-03T05:58:02.573Z,957.84
2018-12-03T05:59:12.810Z,957.82
2018-12-03T06:00:23.007Z,957.85
2018-12-03T06:01:33.196Z,957.8
2018-12-03T06:02:43.429Z,957.83
2018-12-03T06:03:53.620Z,957.83
2018-12-03T06:05:03.808Z,957.83
2018-12-03T06:06:13.987Z,957.85
2018-12-03T06:07:24.185Z,957.84
2018-12-03T06:08:34.420Z,957.85
2018-12-03T06:09:44.613Z,957.79
2018-12-03T06:10:54.801Z,957.79
2018-12-03T06:12:04.989Z,957.78
2018-12-03T06:13:15.181Z,957.77
2018-12-03T06:14:25.479Z,957.75
2018-12-03T06:15:35.713Z,957.77
2018-12-03T06:16:45.895Z,957.78
2018-12-03T06:17:56.085Z,957.79
2018-12-03T06:19:06.292Z,957.75
2018-12-03T06:20:16.530Z,957.77
2018-12-03T06:21:26.460Z,957.75
2018-12-03T06:22:36.645Z,957.76
2018-12-03T06:23:46.828Z,957.74
2018-12-03T06:24:57.009Z,957.73
2018-12-03T06:26:07.257Z,957.72
2018-12-03T06:27:17.442Z,957.73
2018-12-03T06:28:27.622Z,957.69
2018-12-03T06:29:37.802Z,957.69
2018-12-03T06:30:47.992Z,957.72
2018-12-03T06:31:58.325Z,957.71
2018-12-03T06:33:08.508Z,957.68
2018-12-03T06:34:19.095Z,957.68
2018-12-03T06:35:29.368Z,957.68
2018-12-03T06:36:39.556Z,957.66
2018-12-03T06:37:49.890Z,957.64
2018-12-03T06:39:00.072Z,957.62
2018-12-03T06:40:10.270Z,957.58
2018-12-03T06:41:20.459Z,957.58
2018-12-03T06:42:30.642Z,957.56
2018-12-03T06:43:40.876Z,957.58
2018-12-03T06:44:51.060Z,957.58
2018-12-03T06:46:01.241Z,957.53
2018-12-03T06:47:11.419Z,957.53
2018-12-03T06:48:21.657Z,957.56
2018-12-03T06:49:31.888Z,957.54
2018-12-03T06:50:43.282Z,957.56
2018-12-03T06:51:53.203Z,957.57
2018-12-03T06:53:03.386Z,957.51
2018-12-03T06:54:13.576Z,957.52
2018-12-03T06:55:23.818Z,957.55
2018-12-03T06:56:34.010Z,957.55
2018-12-03T06:57:44.191Z,957.55
2018-12-03T06:58:54.378Z,957.57
2018-12-03T07:00:04.571Z,957.57
2018-12-03T07:01:14.907Z,957.58
2018-12-03T07:02:25.095Z,957.54
2018-12-03T07:03:35.455Z,957.58
2018-12-03T07:04:45.642Z,957.58
2018-12-03T07:05:55.873Z,957.58
2018-12-03T07:07:06.207Z,957.57
2018-12-03T07:08:16.391Z,957.55
2018-12-03T07:09:26.584Z,957.6
2018-12-03T07:10:36.771Z,957.6
2018-12-03T07:11:46.959Z,957.58
2018-12-03T07:12:57.191Z,957.6
2018-12-03T07:14:07.387Z,957.57
2018-12-03T07:15:17.571Z,957.6
2018-12-03T07:16:27.765Z,957.57
2018-12-03T07:17:37.962Z,957.53
2018-12-03T07:18:48.061Z,957.57
2018-12-03T07:19:58.269Z,957.54
2018-12-03T07:21:08.458Z,957.56
2018-12-03T07:22:18.656Z,957.49
2018-12-03T07:23:28.875Z,957.53
2018-12-03T07:24:39.107Z,957.46
2018-12-03T07:25:49.318Z,957.48
2018-12-03T07:26:59.499Z,957.46
2018-12-03T07:28:09.685Z,957.47
2018-12-03T07:29:19.882Z,957.46
2018-12-03T07:30:30.121Z,957.45
2018-12-03T07:31:40.314Z,957.43
2018-12-03T07:32:50.497Z,957.49
2018-12-03T07:34:03.326Z,957.49
2018-12-03T07:35:13.601Z,957.49
2018-12-03T07:36:23.926Z,957.5
2018-12-03T07:37:34.109Z,957.47
2018-12-03T07:38:44.293Z,957.45
2018-12-03T07:39:54.479Z,957.43
2018-12-03T07:41:04.664Z,957.42
2018-12-03T07:42:15.001Z,957.38
2018-12-03T07:43:25.186Z,957.35
2018-12-03T07:44:35.371Z,957.36
2018-12-03T07:45:45.555Z,957.38
2018-12-03T07:46:55.736Z,957.36
2018-12-03T07:48:06.015Z,957.37
2018-12-03T07:49:16.201Z,957.35
2018-12-03T07:50:26.381Z,957.34
2018-12-03T07:51:36.581Z,957.38
2018-12-03T07:52:46.764Z,957.32
2018-12-03T07:53:57.102Z,957.33
2018-12-03T07:55:07.289Z,957.27
2018-12-03T07:56:17.475Z,957.28
2018-12-03T07:57:27.661Z,957.27
2018-12-03T07:58:37.851Z,957.21
2018-12-03T07:59:48.183Z,957.23
2018-12-03T08:00:58.370Z,957.28
2018-12-03T08:02:08.558Z,957.25
2018-12-03T08:03:18.740Z,957.27
2018-12-03T08:04:28.924Z,957.27
2018-12-03T08:05:39.209Z,957.24
2018-12-03T08:06:50.365Z,957.22
2018-12-03T08:08:00.571Z,957.2
2018-12-03T08:09:10.753Z,957.2
2018-12-03T08:10:20.937Z,957.23
2018-12-03T08:11:31.170Z,957.18
2018-12-03T08:12:41.358Z,957.19
2018-12-03T08:13:51.548Z,957.19
2018-12-03T08:15:01.733Z,957.13
2018-12-03T08:16:11.915Z,957.12
2018-12-03T08:17:22.247Z,957.14
2018-12-03T08:18:32.442Z,957.1
2018-12-03T08:19:42.625Z,957.12
2018-12-03T08:20:57.064Z,957.08
2018-12-03T08:22:07.246Z,957.09
2018-12-03T08:23:17.578Z,957.09
2018-12-03T08:24:27.496Z,957.1
2018-12-03T08:25:37.687Z,957.07
2018-12-03T08:26:47.604Z,957.1
2018-12-03T08:27:57.782Z,957.07
2018-12-03T08:29:08.122Z,957.03
2018-12-03T08:30:18.047Z,957.04
2018-12-03T08:31:28.235Z,957
2018-12-03T08:32:38.474Z,956.99
2018-12-03T08:33:48.667Z,956.96
2018-12-03T08:34:58.898Z,957
2018-12-03T08:36:09.081Z,956.98
2018-12-03T08:37:19.003Z,956.97
2018-12-03T08:38:29.190Z,957
2018-12-03T08:39:39.854Z,956.98
2018-12-03T08:40:50.186Z,956.96
2018-12-03T08:42:00.373Z,956.97
2018-12-03T08:43:10.561Z,956.96
2018-12-03T08:44:20.745Z,956.9
2018-12-03T08:45:30.928Z,956.91
2018-12-03T08:46:41.261Z,956.92
2018-12-03T08:47:51.441Z,956.89
2018-12-03T08:49:01.626Z,956.88
2018-12-03T08:50:11.807Z,956.9
2018-12-03T08:51:21.992Z,956.88
2018-12-03T08:52:32.229Z,956.85
2018-12-03T08:53:42.417Z,956.85
2018-12-03T08:54:52.599Z,956.83
2018-12-03T08:56:04.075Z,956.81
2018-12-03T08:57:14.253Z,956.8
2018-12-03T08:58:24.587Z,956.79
2018-12-03T08:59:34.501Z,956.81
2018-12-03T09:00:44.682Z,956.78
2018-12-03T09:01:54.650Z,956.83
2018-12-03T09:03:04.829Z,956.8
2018-12-03T09:04:15.161Z,956.77
2018-12-03T09:05:25.075Z,956.78
2018-12-03T09:06:35.254Z,956.76
2018-12-03T09:07:45.454Z,956.75
2018-12-03T09:08:55.644Z,956.75
2018-12-03T09:10:05.982Z,956.75
2018-12-03T09:11:16.165Z,956.72
2018-12-03T09:12:26.346Z,956.71
2018-12-03T09:13:36.529Z,956.73
2018-12-03T09:14:46.717Z,956.67
2018-12-03T09:15:56.958Z,956.69
2018-12-03T09:17:07.142Z,956.7
2018-12-03T09:18:17.061Z,956.66
2018-12-03T09:19:27.254Z,956.74
2018-12-03T09:20:37.442Z,956.7
2018-12-03T09:21:47.815Z,956.68
2018-12-03T09:22:57.997Z,956.62
2018-12-03T09:24:08.192Z,956.65
2018-12-03T09:25:18.388Z,956.63
2018-12-03T09:26:28.577Z,956.6
2018-12-03T09:27:38.814Z,956.6
2018-12-03T09:28:49.043Z,956.59
2018-12-03T09:29:59.229Z,956.57
2018-12-03T09:31:09.417Z,956.58
2018-12-03T09:32:19.607Z,956.56
2018-12-03T09:33:29.842Z,956.57
2018-12-03T09:34:40.030Z,956.56
2018-12-03T09:35:50.217Z,956.55
2018-12-03T09:37:00.406Z,956.55
2018-12-03T09:38:10.595Z,956.53
2018-12-03T09:39:20.876Z,956.52
2018-12-03T09:40:31.065Z,956.49
2018-12-03T09:41:41.251Z,956.5
2018-12-03T09:42:51.434Z,956.46
2018-12-03T09:44:01.637Z,956.47
2018-12-03T09:45:11.976Z,956.43
2018-12-03T09:46:22.161Z,956.44
2018-12-03T09:47:32.359Z,956.38
2018-12-03T09:48:42.541Z,956.41
2018-12-03T09:49:52.738Z,956.4
2018-12-03T09:51:03.086Z,956.34
2018-12-03T09:52:13.275Z,956.34
2018-12-03T09:53:23.454Z,956.31
2018-12-03T09:54:33.636Z,956.31
2018-12-03T09:55:43.833Z,956.24
2018-12-03T09:56:54.061Z,956.24
2018-12-03T09:58:04.285Z,956.26
2018-12-03T09:59:15.693Z,956.21
2018-12-03T10:00:25.881Z,956.21
2018-12-03T10:01:36.066Z,956.24
2018-12-03T10:02:46.402Z,956.22
2018-12-03T10:03:56.591Z,956.19
2018-12-03T10:05:06.779Z,956.2
2018-12-03T10:06:16.958Z,956.22
2018-12-03T10:07:27.143Z,956.21
2018-12-03T10:08:37.382Z,956.2
2018-12-03T10:09:47.594Z,956.2
2018-12-03T10:10:57.778Z,956.2
2018-12-03T10:12:07.975Z,956.17
2018-12-03T10:13:23.532Z,956.13
2018-12-03T10:14:33.766Z,956.18
2018-12-03T10:15:43.953Z,956.11
2018-12-03T10:16:54.134Z,956.15
2018-12-03T10:18:04.323Z,956.03
2018-12-03T10:19:14.507Z,956.03
2018-12-03T10:20:24.842Z,956.05
2018-12-03T10:21:35.024Z,956.04
2018-12-03T10:22:45.219Z,956.03
2018-12-03T10:23:55.411Z,956.06
2018-12-03T10:25:05.593Z,956.04
2018-12-03T10:26:15.828Z,956.02
2018-12-03T10:27:26.015Z,956.05
2018-12-03T10:28:36.199Z,956.04
2018-12-03T10:29:46.382Z,955.99
2018-12-03T10:30:56.579Z,955.99
2018-12-03T10:32:06.907Z,955.96
2018-12-03T10:33:17.088Z,955.97
2018-12-03T10:34:27.276Z,955.99
2018-12-03T10:35:37.464Z,955.99
2018-12-03T10:36:47.645Z,955.97
2018-12-03T10:37:57.927Z,955.93
2018-12-03T10:39:08.126Z,955.95
2018-12-03T10:40:18.314Z,955.92
2018-12-03T10:41:28.500Z,955.88
2018-12-03T10:42:38.685Z,955.9
2018-12-03T10:43:48.866Z,955.85
2018-12-03T10:45:00.242Z,955.87
2018-12-03T10:46:10.434Z,955.85
2018-12-03T10:47:20.349Z,955.88
2018-12-03T10:48:30.527Z,955.87
2018-12-03T10:49:40.717Z,955.81
2018-12-03T10:50:50.898Z,955.82
2018-12-03T10:52:01.098Z,955.82
2018-12-03T10:53:11.290Z,955.78
2018-12-03T10:54:21.492Z,955.77
2018-12-03T10:55:31.776Z,955.76
2018-12-03T10:56:41.959Z,955.79
2018-12-03T10:57:52.139Z,955.78
2018-12-03T10:59:02.324Z,955.79
2018-12-03T11:00:12.524Z,955.74
2018-12-03T11:01:22.811Z,955.71
2018-12-03T11:02:33.772Z,955.7
2018-12-03T11:03:43.954Z,955.67
2018-12-03T11:04:54.147Z,955.68
2018-12-03T11:06:04.355Z,955.65
2018-12-03T11:07:14.543Z,955.63
2018-12-03T11:08:24.729Z,955.63
2018-12-03T11:09:34.916Z,955.63
2018-12-03T11:10:45.109Z,955.68
2018-12-03T11:11:55.302Z,955.67
2018-12-03T11:13:05.535Z,955.58
2018-12-03T11:14:15.720Z,955.6
2018-12-03T11:15:25.902Z,955.57
2018-12-03T11:16:36.086Z,955.57
2018-12-03T11:17:46.273Z,955.56
2018-12-03T11:18:56.465Z,955.57
2018-12-03T11:20:06.649Z,955.53
2018-12-03T11:21:16.902Z,955.53
2018-12-03T11:22:27.240Z,955.5
2018-12-03T11:23:37.432Z,955.5
2018-12-03T11:24:47.718Z,955.45
2018-12-03T11:25:57.902Z,955.47
2018-12-03T11:27:08.084Z,955.45
2018-12-03T11:28:18.269Z,955.47
2018-12-03T11:29:28.454Z,955.43
2018-12-03T11:30:38.793Z,955.39
2018-12-03T11:31:48.975Z,955.43
2018-12-03T11:32:59.162Z,955.4
2018-12-03T11:34:09.361Z,955.41
2018-12-03T11:35:19.551Z,955.4
2018-12-03T11:36:29.835Z,955.37
2018-12-03T11:37:40.017Z,955.35
2018-12-03T11:38:50.201Z,955.37
2018-12-03T11:40:00.391Z,955.35
2018-12-03T11:41:10.580Z,955.3
2018-12-03T11:42:20.775Z,955.28
2018-12-03T11:43:30.962Z,955.26
2018-12-03T11:44:41.150Z,955.28
2018-12-03T11:45:51.341Z,955.27
2018-12-03T11:47:01.529Z,955.26
2018-12-03T11:48:11.821Z,955.24
2018-12-03T11:49:22.003Z,955.19
2018-12-03T11:50:32.250Z,955.21
2018-12-03T11:51:42.442Z,955.15
2018-12-03T11:52:52.631Z,955.12
2018-12-03T11:54:02.923Z,955.12
2018-12-03T11:55:13.115Z,955.14
2018-12-03T11:56:23.315Z,955.08
2018-12-03T11:57:33.495Z,955.08
2018-12-03T11:58:43.685Z,955.07
2018-12-03T11:59:53.874Z,955.06
2018-12-03T12:01:04.061Z,955.02
2018-12-03T12:02:14.250Z,955.05
2018-12-03T12:03:24.434Z,955.05
2018-12-03T12:04:34.618Z,955.06
2018-12-03T12:05:44.963Z,955.07
2018-12-03T12:06:55.152Z,955.1
2018-12-03T12:08:05.352Z,955.07
2018-12-03T12:09:20.840Z,955.07
2018-12-03T12:10:31.291Z,955.03
2018-12-03T12:11:41.605Z,954.99
2018-12-03T12:12:51.797Z,955.01
2018-12-03T12:14:01.986Z,954.95
2018-12-03T12:15:12.176Z,954.94
2018-12-03T12:16:22.363Z,954.94
2018-12-03T12:17:32.545Z,954.86
2018-12-03T12:18:42.728Z,954.84
2018-12-03T12:19:52.937Z,954.88
2018-12-03T12:21:03.129Z,954.85
2018-12-03T12:22:13.325Z,954.88
2018-12-03T12:23:23.626Z,954.86
2018-12-03T12:24:33.818Z,954.86
2018-12-03T12:25:44.287Z,954.85
2018-12-03T12:26:54.198Z,954.83
2018-12-03T12:28:04.382Z,954.78
2018-12-03T12:29:14.667Z,954.77
2018-12-03T12:30:24.858Z,954.77
2018-12-03T12:31:35.049Z,954.77
2018-12-03T12:32:45.238Z,954.75
2018-12-03T12:33:55.445Z,954.8
2018-12-03T12:35:05.629Z,954.79
2018-12-03T12:36:15.825Z,954.78
2018-12-03T12:37:26.006Z,954.76
2018-12-03T12:38:36.219Z,954.74
2018-12-03T12:39:46.401Z,954.76
2018-12-03T12:40:56.592Z,954.75
2018-12-03T12:42:06.779Z,954.77
2018-12-03T12:43:16.964Z,954.75
2018-12-03T12:44:27.148Z,954.7
2018-12-03T12:45:37.327Z,954.7
2018-12-03T12:46:47.611Z,954.65
2018-12-03T12:47:57.796Z,954.64
2018-12-03T12:49:07.975Z,954.64
2018-12-03T12:50:17.887Z,954.61
2018-12-03T12:51:28.076Z,954.58
2018-12-03T12:52:38.303Z,954.56
2018-12-03T12:53:48.487Z,954.56
2018-12-03T12:54:58.670Z,954.53
2018-12-03T12:56:08.907Z,954.48
2018-12-03T12:57:19.094Z,954.5
2018-12-03T12:58:29.432Z,954.47
2018-12-03T12:59:39.619Z,954.44
2018-12-03T13:00:49.801Z,954.4
2018-12-03T13:01:59.987Z,954.45
2018-12-03T13:03:10.171Z,954.43
2018-12-03T13:04:20.504Z,954.46
2018-12-03T13:05:30.694Z,954.42
2018-12-03T13:06:40.877Z,954.45
2018-12-03T13:07:51.066Z,954.44
2018-12-03T13:09:01.310Z,954.43
2018-12-03T13:10:11.492Z,954.4
2018-12-03T13:11:21.679Z,954.41
2018-12-03T13:12:31.862Z,954.37
2018-12-03T13:13:42.047Z,954.4
2018-12-03T13:14:52.240Z,954.35
2018-12-03T13:16:02.569Z,954.36
2018-12-03T13:17:12.755Z,954.36
2018-12-03T13:18:22.941Z,954.38
2018-12-03T13:19:33.130Z,954.32
2018-12-03T13:20:43.309Z,954.31
2018-12-03T13:21:53.334Z,954.29
2018-12-03T13:23:03.514Z,954.28
2018-12-03T13:24:13.431Z,954.31
2018-12-03T13:25:23.347Z,954.3
2018-12-03T13:26:33.257Z,954.3
2018-12-03T13:27:43.493Z,954.32
2018-12-03T13:28:53.674Z,954.29
2018-12-03T13:30:03.855Z,954.28
2018-12-03T13:31:14.068Z,954.3
2018-12-03T13:32:24.250Z,954.32
2018-12-03T13:33:34.430Z,954.28
2018-12-03T13:34:44.616Z,954.26
2018-12-03T13:35:54.801Z,954.23
2018-12-03T13:37:04.983Z,954.24
2018-12-03T13:38:15.164Z,954.26
2018-12-03T13:39:25.396Z,954.24
2018-12-03T13:40:35.592Z,954.22
2018-12-03T13:41:45.775Z,954.18
2018-12-03T13:42:55.960Z,954.2
2018-12-03T13:44:06.144Z,954.19
2018-12-03T13:45:16.431Z,954.18
2018-12-03T13:46:26.621Z,954.15
2018-12-03T13:47:36.846Z,954.12
2018-12-03T13:48:47.035Z,954.09
2018-12-03T13:49:57.262Z,954.03
2018-12-03T13:51:07.547Z,954.04
2018-12-03T13:52:17.738Z,954.02
2018-12-03T13:53:27.920Z,954.02
2018-12-03T13:54:38.129Z,954.02
2018-12-03T13:55:48.311Z,954.02
2018-12-03T13:56:59.585Z,954.01
2018-12-03T13:58:09.828Z,954.01
2018-12-03T13:59:20.016Z,954.01
2018-12-03T14:00:30.212Z,954.04
2018-12-03T14:01:40.395Z,953.99
2018-12-03T14:02:50.993Z,954
2018-12-03T14:04:01.179Z,954
2018-12-03T14:05:11.374Z,953.99
2018-12-03T14:06:21.557Z,953.97
2018-12-03T14:07:31.490Z,953.94
2018-12-03T14:08:41.681Z,953.95
2018-12-03T14:09:51.876Z,953.98
2018-12-03T14:11:02.060Z,953.94
2018-12-03T14:12:13.314Z,953.94
2018-12-03T14:13:23.500Z,953.93
2018-12-03T14:14:33.474Z,953.95
2018-12-03T14:15:43.671Z,953.89
2018-12-03T14:16:53.859Z,953.9
2018-12-03T14:18:04.039Z,953.88
2018-12-03T14:19:14.238Z,953.89
2018-12-03T14:20:24.420Z,953.88
2018-12-03T14:21:34.606Z,953.88
2018-12-03T14:22:44.943Z,953.84
2018-12-03T14:23:55.132Z,953.85
2018-12-03T14:25:05.317Z,953.85
2018-12-03T14:26:15.552Z,953.83
2018-12-03T14:27:25.736Z,953.79
2018-12-03T14:28:35.925Z,953.81
2018-12-03T14:29:46.486Z,953.82
2018-12-03T14:30:56.674Z,953.81
2018-12-03T14:32:06.736Z,953.8
2018-12-03T14:33:16.928Z,953.75
2018-12-03T14:34:27.271Z,953.72
2018-12-03T14:35:37.468Z,953.73
2018-12-03T14:36:47.656Z,953.75
2018-12-03T14:37:57.993Z,953.71
2018-12-03T14:39:08.180Z,953.7
2018-12-03T14:40:18.366Z,953.69